sensor_id;sensor_type;location;lat;lon;timestamp;P1;durP1;ratioP1;P2;durP2;ratioP2
6406;SDS011;3236;51.022;6.818;2024-01-16T00:01:21;16.33;;;4.97;;
6406;SDS011;3236;51.022;6.818;2024-01-16T00:03:52;12.23;;;4.55;;
6406;SDS011;3236;51.022;6.818;2024-01-16T00:06:19;18.80;;;7.55;;
6406;SDS011;3236;51.022;6.818;2024-01-16T00:08:46;9.73;;;4.47;;
6406;SDS011;3236;51.022;6.818;2024-01-16T00:11:13;21.65;;;8.98;;
6406;SDS011;3236;51.022;6.818;2024-01-16T00:13:43;18.83;;;9.52;;
6406;SDS011;3236;51.022;6.818;2024-01-16T00:16:12;19.08;;;9.30;;
6406;SDS011;3236;51.022;6.818;2024-01-16T00:18:39;10.52;;;6.00;;
6406;SDS011;3236;51.022;6.818;2024-01-16T00:21:06;9.05;;;6.22;;
6406;SDS011;3236;51.022;6.818;2024-01-16T00:23:35;21.83;;;8.05;;
6406;SDS011;3236;51.022;6.818;2024-01-16T00:26:02;20.45;;;5.85;;
6406;SDS011;3236;51.022;6.818;2024-01-16T00:28:30;11.73;;;5.47;;
6406;SDS011;3236;51.022;6.818;2024-01-16T00:31:07;14.52;;;7.80;;
6406;SDS011;3236;51.022;6.818;2024-01-16T00:33:35;18.15;;;6.85;;
6406;SDS011;3236;51.022;6.818;2024-01-16T00:36:03;12.73;;;4.65;;
6406;SDS011;3236;51.022;6.818;2024-01-16T00:38:32;20.13;;;8.05;;
6406;SDS011;3236;51.022;6.818;2024-01-16T00:41:00;16.20;;;7.65;;
6406;SDS011;3236;51.022;6.818;2024-01-16T00:43:27;8.65;;;5.93;;
6406;SDS011;3236;51.022;6.818;2024-01-16T00:45:54;21.63;;;7.70;;
6406;SDS011;3236;51.022;6.818;2024-01-16T00:48:28;18.92;;;8.68;;
6406;SDS011;3236;51.022;6.818;2024-01-16T00:50:56;13.20;;;8.30;;
6406;SDS011;3236;51.022;6.818;2024-01-16T00:53:25;18.42;;;9.23;;
6406;SDS011;3236;51.022;6.818;2024-01-16T00:55:53;8.15;;;5.85;;
6406;SDS011;3236;51.022;6.818;2024-01-16T00:58:21;16.25;;;8.93;;
6406;SDS011;3236;51.022;6.818;2024-01-16T01:00:48;16.20;;;7.90;;
6406;SDS011;3236;51.022;6.818;2024-01-16T01:03:16;11.18;;;6.80;;
6406;SDS011;3236;51.022;6.818;2024-01-16T01:05:43;14.82;;;6.43;;
6406;SDS011;3236;51.022;6.818;2024-01-16T01:08:12;10.43;;;7.57;;
6406;SDS011;3236;51.022;6.818;2024-01-16T01:10:42;13.18;;;5.63;;
6406;SDS011;3236;51.022;6.818;2024-01-16T01:13:10;17.10;;;7.53;;
6406;SDS011;3236;51.022;6.818;2024-01-16T01:15:37;17.25;;;7.20;;
6406;SDS011;3236;51.022;6.818;2024-01-16T01:18:05;16.60;;;7.35;;
6406;SDS011;3236;51.022;6.818;2024-01-16T01:20:32;10.02;;;6.63;;
6406;SDS011;3236;51.022;6.818;2024-01-16T01:22:59;12.73;;;5.60;;
6406;SDS011;3236;51.022;6.818;2024-01-16T01:25:28;12.18;;;6.30;;
6406;SDS011;3236;51.022;6.818;2024-01-16T01:27:55;16.65;;;7.15;;
6406;SDS011;3236;51.022;6.818;2024-01-16T01:30:23;16.88;;;6.78;;
6406;SDS011;3236;51.022;6.818;2024-01-16T01:32:50;5.20;;;3.72;;
6406;SDS011;3236;51.022;6.818;2024-01-16T01:35:17;8.43;;;6.15;;
6406;SDS011;3236;51.022;6.818;2024-01-16T01:37:45;11.38;;;6.70;;
6406;SDS011;3236;51.022;6.818;2024-01-16T01:40:13;15.73;;;6.30;;
6406;SDS011;3236;51.022;6.818;2024-01-16T01:42:42;13.27;;;5.43;;
6406;SDS011;3236;51.022;6.818;2024-01-16T01:45:10;16.38;;;7.65;;
6406;SDS011;3236;51.022;6.818;2024-01-16T01:47:37;8.77;;;4.43;;
6406;SDS011;3236;51.022;6.818;2024-01-16T01:50:06;9.23;;;4.95;;
6406;SDS011;3236;51.022;6.818;2024-01-16T01:52:34;10.40;;;6.32;;
6406;SDS011;3236;51.022;6.818;2024-01-16T01:55:02;20.25;;;7.78;;
6406;SDS011;3236;51.022;6.818;2024-01-16T01:57:32;18.35;;;8.90;;
6406;SDS011;3236;51.022;6.818;2024-01-16T02:00:04;12.63;;;8.20;;
6406;SDS011;3236;51.022;6.818;2024-01-16T02:02:36;21.20;;;9.15;;
6406;SDS011;3236;51.022;6.818;2024-01-16T02:05:03;13.65;;;8.25;;
6406;SDS011;3236;51.022;6.818;2024-01-16T02:07:31;15.55;;;7.55;;
6406;SDS011;3236;51.022;6.818;2024-01-16T02:10:00;7.70;;;4.57;;
6406;SDS011;3236;51.022;6.818;2024-01-16T02:12:29;16.48;;;6.85;;
6406;SDS011;3236;51.022;6.818;2024-01-16T02:14:56;12.98;;;8.25;;
6406;SDS011;3236;51.022;6.818;2024-01-16T02:17:31;6.35;;;4.95;;
6406;SDS011;3236;51.022;6.818;2024-01-16T02:19:58;4.78;;;3.97;;
6406;SDS011;3236;51.022;6.818;2024-01-16T02:22:29;16.20;;;5.75;;
6406;SDS011;3236;51.022;6.818;2024-01-16T02:25:01;10.07;;;5.97;;
6406;SDS011;3236;51.022;6.818;2024-01-16T02:27:28;13.57;;;5.68;;
6406;SDS011;3236;51.022;6.818;2024-01-16T02:29:55;15.52;;;6.22;;
6406;SDS011;3236;51.022;6.818;2024-01-16T02:32:22;9.35;;;3.95;;
6406;SDS011;3236;51.022;6.818;2024-01-16T02:34:50;8.52;;;4.53;;
6406;SDS011;3236;51.022;6.818;2024-01-16T02:37:17;5.50;;;3.92;;
6406;SDS011;3236;51.022;6.818;2024-01-16T02:39:45;10.60;;;5.53;;
6406;SDS011;3236;51.022;6.818;2024-01-16T02:42:13;16.08;;;5.35;;
6406;SDS011;3236;51.022;6.818;2024-01-16T02:44:41;8.52;;;3.97;;
6406;SDS011;3236;51.022;6.818;2024-01-16T02:47:08;8.98;;;4.45;;
6406;SDS011;3236;51.022;6.818;2024-01-16T02:49:35;15.40;;;5.30;;
6406;SDS011;3236;51.022;6.818;2024-01-16T02:52:05;7.95;;;4.05;;
6406;SDS011;3236;51.022;6.818;2024-01-16T02:54:32;10.48;;;5.20;;
6406;SDS011;3236;51.022;6.818;2024-01-16T02:56:59;4.47;;;2.70;;
6406;SDS011;3236;51.022;6.818;2024-01-16T02:59:28;14.75;;;6.03;;
6406;SDS011;3236;51.022;6.818;2024-01-16T03:01:55;12.52;;;6.88;;
6406;SDS011;3236;51.022;6.818;2024-01-16T03:04:23;14.98;;;5.57;;
6406;SDS011;3236;51.022;6.818;2024-01-16T03:06:50;8.25;;;4.30;;
6406;SDS011;3236;51.022;6.818;2024-01-16T03:09:17;11.38;;;5.57;;
6406;SDS011;3236;51.022;6.818;2024-01-16T03:11:45;12.10;;;6.57;;
6406;SDS011;3236;51.022;6.818;2024-01-16T03:14:12;12.23;;;5.18;;
6406;SDS011;3236;51.022;6.818;2024-01-16T03:16:41;10.18;;;5.15;;
6406;SDS011;3236;51.022;6.818;2024-01-16T03:19:09;11.32;;;4.70;;
6406;SDS011;3236;51.022;6.818;2024-01-16T03:21:37;7.60;;;4.80;;
6406;SDS011;3236;51.022;6.818;2024-01-16T03:24:07;7.93;;;3.35;;
6406;SDS011;3236;51.022;6.818;2024-01-16T03:26:35;5.28;;;4.03;;
6406;SDS011;3236;51.022;6.818;2024-01-16T03:29:03;12.77;;;6.30;;
6406;SDS011;3236;51.022;6.818;2024-01-16T03:31:34;14.52;;;6.22;;
6406;SDS011;3236;51.022;6.818;2024-01-16T03:34:06;17.60;;;6.73;;
6406;SDS011;3236;51.022;6.818;2024-01-16T03:36:35;10.18;;;4.90;;
6406;SDS011;3236;51.022;6.818;2024-01-16T03:39:03;6.82;;;4.15;;
6406;SDS011;3236;51.022;6.818;2024-01-16T03:41:30;10.80;;;5.65;;
6406;SDS011;3236;51.022;6.818;2024-01-16T03:43:58;8.75;;;5.45;;
6406;SDS011;3236;51.022;6.818;2024-01-16T03:46:25;13.60;;;5.97;;
6406;SDS011;3236;51.022;6.818;2024-01-16T03:48:53;7.13;;;4.85;;
6406;SDS011;3236;51.022;6.818;2024-01-16T03:51:21;12.00;;;6.68;;
6406;SDS011;3236;51.022;6.818;2024-01-16T03:53:49;9.60;;;5.65;;
6406;SDS011;3236;51.022;6.818;2024-01-16T03:56:16;15.38;;;7.28;;
6406;SDS011;3236;51.022;6.818;2024-01-16T03:58:43;18.80;;;9.10;;
6406;SDS011;3236;51.022;6.818;2024-01-16T04:01:29;10.48;;;5.10;;
6406;SDS011;3236;51.022;6.818;2024-01-16T04:03:58;14.65;;;5.20;;
6406;SDS011;3236;51.022;6.818;2024-01-16T04:06:29;10.02;;;4.97;;
6406;SDS011;3236;51.022;6.818;2024-01-16T04:08:57;20.60;;;7.57;;
6406;SDS011;3236;51.022;6.818;2024-01-16T04:11:28;14.18;;;5.70;;
6406;SDS011;3236;51.022;6.818;2024-01-16T04:13:55;19.27;;;8.43;;
6406;SDS011;3236;51.022;6.818;2024-01-16T04:16:23;7.85;;;5.30;;
6406;SDS011;3236;51.022;6.818;2024-01-16T04:18:50;10.93;;;6.13;;
6406;SDS011;3236;51.022;6.818;2024-01-16T04:21:23;17.40;;;6.10;;
6406;SDS011;3236;51.022;6.818;2024-01-16T04:23:52;13.95;;;7.20;;
6406;SDS011;3236;51.022;6.818;2024-01-16T04:26:19;17.45;;;7.15;;
6406;SDS011;3236;51.022;6.818;2024-01-16T04:28:46;17.58;;;5.38;;
6406;SDS011;3236;51.022;6.818;2024-01-16T04:31:17;15.73;;;5.97;;
6406;SDS011;3236;51.022;6.818;2024-01-16T04:33:44;13.50;;;6.57;;
6406;SDS011;3236;51.022;6.818;2024-01-16T04:36:12;10.90;;;6.45;;
6406;SDS011;3236;51.022;6.818;2024-01-16T04:38:39;6.97;;;2.90;;
6406;SDS011;3236;51.022;6.818;2024-01-16T04:41:10;17.70;;;7.32;;
6406;SDS011;3236;51.022;6.818;2024-01-16T04:43:37;16.90;;;5.85;;
6406;SDS011;3236;51.022;6.818;2024-01-16T04:46:04;13.60;;;5.43;;
6406;SDS011;3236;51.022;6.818;2024-01-16T04:48:31;8.98;;;4.97;;
6406;SDS011;3236;51.022;6.818;2024-01-16T04:50:58;10.23;;;4.35;;
6406;SDS011;3236;51.022;6.818;2024-01-16T04:53:26;10.55;;;4.32;;
6406;SDS011;3236;51.022;6.818;2024-01-16T04:55:59;13.65;;;5.38;;
6406;SDS011;3236;51.022;6.818;2024-01-16T04:58:33;14.05;;;7.15;;
6406;SDS011;3236;51.022;6.818;2024-01-16T05:01:01;14.63;;;6.38;;
6406;SDS011;3236;51.022;6.818;2024-01-16T05:03:28;19.92;;;6.13;;
6406;SDS011;3236;51.022;6.818;2024-01-16T05:05:55;15.93;;;6.07;;
6406;SDS011;3236;51.022;6.818;2024-01-16T05:08:23;17.10;;;7.15;;
6406;SDS011;3236;51.022;6.818;2024-01-16T05:10:50;19.33;;;6.55;;
6406;SDS011;3236;51.022;6.818;2024-01-16T05:13:18;11.88;;;4.22;;
6406;SDS011;3236;51.022;6.818;2024-01-16T05:15:47;14.95;;;5.07;;
6406;SDS011;3236;51.022;6.818;2024-01-16T05:18:14;18.80;;;6.25;;
6406;SDS011;3236;51.022;6.818;2024-01-16T05:20:41;17.75;;;5.85;;
6406;SDS011;3236;51.022;6.818;2024-01-16T05:23:09;24.35;;;7.22;;
6406;SDS011;3236;51.022;6.818;2024-01-16T05:25:36;42.38;;;16.40;;
6406;SDS011;3236;51.022;6.818;2024-01-16T05:28:03;36.47;;;13.07;;
6406;SDS011;3236;51.022;6.818;2024-01-16T05:30:30;18.05;;;9.68;;
6406;SDS011;3236;51.022;6.818;2024-01-16T05:33:00;38.53;;;13.30;;
6406;SDS011;3236;51.022;6.818;2024-01-16T05:35:31;14.85;;;6.40;;
6406;SDS011;3236;51.022;6.818;2024-01-16T05:37:58;12.38;;;5.97;;
6406;SDS011;3236;51.022;6.818;2024-01-16T05:40:26;21.50;;;7.15;;
6406;SDS011;3236;51.022;6.818;2024-01-16T05:42:53;17.40;;;5.50;;
6406;SDS011;3236;51.022;6.818;2024-01-16T05:45:21;19.75;;;6.05;;
6406;SDS011;3236;51.022;6.818;2024-01-16T05:47:49;17.02;;;6.22;;
6406;SDS011;3236;51.022;6.818;2024-01-16T05:50:18;13.05;;;5.53;;
6406;SDS011;3236;51.022;6.818;2024-01-16T05:52:45;9.73;;;4.90;;
6406;SDS011;3236;51.022;6.818;2024-01-16T05:55:13;7.95;;;4.88;;
6406;SDS011;3236;51.022;6.818;2024-01-16T05:57:41;12.15;;;4.38;;
6406;SDS011;3236;51.022;6.818;2024-01-16T06:00:09;14.15;;;4.95;;
6406;SDS011;3236;51.022;6.818;2024-01-16T06:02:37;10.55;;;3.72;;
6406;SDS011;3236;51.022;6.818;2024-01-16T06:05:06;14.45;;;4.75;;
6406;SDS011;3236;51.022;6.818;2024-01-16T06:07:35;14.57;;;4.28;;
6406;SDS011;3236;51.022;6.818;2024-01-16T06:10:02;13.43;;;4.57;;
6406;SDS011;3236;51.022;6.818;2024-01-16T06:12:30;8.77;;;3.63;;
6406;SDS011;3236;51.022;6.818;2024-01-16T06:14:57;12.48;;;4.85;;
6406;SDS011;3236;51.022;6.818;2024-01-16T06:17:25;6.20;;;2.78;;
6406;SDS011;3236;51.022;6.818;2024-01-16T06:19:52;10.27;;;3.28;;
6406;SDS011;3236;51.022;6.818;2024-01-16T06:22:19;8.68;;;3.10;;
6406;SDS011;3236;51.022;6.818;2024-01-16T06:24:48;14.25;;;3.67;;
6406;SDS011;3236;51.022;6.818;2024-01-16T06:27:16;4.68;;;2.80;;
6406;SDS011;3236;51.022;6.818;2024-01-16T06:29:45;4.13;;;1.52;;
6406;SDS011;3236;51.022;6.818;2024-01-16T06:32:12;7.57;;;2.63;;
6406;SDS011;3236;51.022;6.818;2024-01-16T06:34:40;14.57;;;2.50;;
6406;SDS011;3236;51.022;6.818;2024-01-16T06:37:09;10.77;;;3.75;;
6406;SDS011;3236;51.022;6.818;2024-01-16T06:39:39;10.55;;;2.75;;
6406;SDS011;3236;51.022;6.818;2024-01-16T06:42:08;10.18;;;3.10;;
6406;SDS011;3236;51.022;6.818;2024-01-16T06:44:35;6.43;;;2.67;;
6406;SDS011;3236;51.022;6.818;2024-01-16T06:47:02;17.42;;;2.90;;
6406;SDS011;3236;51.022;6.818;2024-01-16T06:49:30;4.15;;;2.03;;
6406;SDS011;3236;51.022;6.818;2024-01-16T06:51:57;14.20;;;3.25;;
6406;SDS011;3236;51.022;6.818;2024-01-16T06:54:25;9.55;;;3.60;;
6406;SDS011;3236;51.022;6.818;2024-01-16T06:56:52;8.85;;;4.00;;
6406;SDS011;3236;51.022;6.818;2024-01-16T06:59:20;10.45;;;3.70;;
6406;SDS011;3236;51.022;6.818;2024-01-16T07:01:51;8.02;;;3.22;;
6406;SDS011;3236;51.022;6.818;2024-01-16T07:04:19;11.15;;;3.80;;
6406;SDS011;3236;51.022;6.818;2024-01-16T07:06:47;10.85;;;2.85;;
6406;SDS011;3236;51.022;6.818;2024-01-16T07:09:14;11.20;;;4.00;;
6406;SDS011;3236;51.022;6.818;2024-01-16T07:11:43;6.93;;;2.65;;
6406;SDS011;3236;51.022;6.818;2024-01-16T07:14:11;7.82;;;3.70;;
6406;SDS011;3236;51.022;6.818;2024-01-16T07:16:40;9.55;;;3.83;;
6406;SDS011;3236;51.022;6.818;2024-01-16T07:19:08;7.65;;;3.60;;
6406;SDS011;3236;51.022;6.818;2024-01-16T07:21:37;8.10;;;3.47;;
6406;SDS011;3236;51.022;6.818;2024-01-16T07:24:05;8.35;;;3.30;;
6406;SDS011;3236;51.022;6.818;2024-01-16T07:26:32;12.48;;;3.80;;
6406;SDS011;3236;51.022;6.818;2024-01-16T07:29:00;7.90;;;3.25;;
6406;SDS011;3236;51.022;6.818;2024-01-16T07:31:27;11.95;;;2.00;;
6406;SDS011;3236;51.022;6.818;2024-01-16T07:33:56;10.65;;;2.95;;
6406;SDS011;3236;51.022;6.818;2024-01-16T07:36:23;4.63;;;2.42;;
6406;SDS011;3236;51.022;6.818;2024-01-16T07:38:50;7.78;;;3.05;;
6406;SDS011;3236;51.022;6.818;2024-01-16T07:41:18;12.55;;;4.30;;
6406;SDS011;3236;51.022;6.818;2024-01-16T07:43:45;6.60;;;2.38;;
6406;SDS011;3236;51.022;6.818;2024-01-16T07:46:12;8.27;;;3.03;;
6406;SDS011;3236;51.022;6.818;2024-01-16T07:48:39;10.35;;;3.30;;
6406;SDS011;3236;51.022;6.818;2024-01-16T07:51:10;9.45;;;3.13;;
6406;SDS011;3236;51.022;6.818;2024-01-16T07:53:37;7.55;;;3.17;;
6406;SDS011;3236;51.022;6.818;2024-01-16T07:56:05;12.35;;;3.67;;
6406;SDS011;3236;51.022;6.818;2024-01-16T07:58:32;10.68;;;3.33;;
6406;SDS011;3236;51.022;6.818;2024-01-16T08:00:59;4.50;;;1.98;;
6406;SDS011;3236;51.022;6.818;2024-01-16T08:03:27;3.85;;;2.03;;
6406;SDS011;3236;51.022;6.818;2024-01-16T08:05:55;5.72;;;3.08;;
6406;SDS011;3236;51.022;6.818;2024-01-16T08:08:25;4.47;;;2.15;;
6406;SDS011;3236;51.022;6.818;2024-01-16T08:10:53;2.67;;;1.60;;
6406;SDS011;3236;51.022;6.818;2024-01-16T08:13:21;7.03;;;3.00;;
6406;SDS011;3236;51.022;6.818;2024-01-16T08:15:49;20.95;;;2.92;;
6406;SDS011;3236;51.022;6.818;2024-01-16T08:18:16;14.00;;;3.50;;
6406;SDS011;3236;51.022;6.818;2024-01-16T08:20:43;7.10;;;2.17;;
6406;SDS011;3236;51.022;6.818;2024-01-16T08:23:11;6.53;;;2.35;;
6406;SDS011;3236;51.022;6.818;2024-01-16T08:25:40;6.20;;;2.05;;
6406;SDS011;3236;51.022;6.818;2024-01-16T08:28:07;3.97;;;2.42;;
6406;SDS011;3236;51.022;6.818;2024-01-16T08:30:35;5.50;;;2.67;;
6406;SDS011;3236;51.022;6.818;2024-01-16T08:33:08;10.52;;;3.35;;
6406;SDS011;3236;51.022;6.818;2024-01-16T08:35:36;5.15;;;1.67;;
6406;SDS011;3236;51.022;6.818;2024-01-16T08:38:03;7.28;;;2.33;;
6406;SDS011;3236;51.022;6.818;2024-01-16T08:40:30;6.97;;;2.72;;
6406;SDS011;3236;51.022;6.818;2024-01-16T08:42:59;9.10;;;2.60;;
6406;SDS011;3236;51.022;6.818;2024-01-16T08:45:26;12.18;;;1.88;;
6406;SDS011;3236;51.022;6.818;2024-01-16T08:47:54;1.63;;;1.52;;
6406;SDS011;3236;51.022;6.818;2024-01-16T08:50:22;5.88;;;2.53;;
6406;SDS011;3236;51.022;6.818;2024-01-16T08:52:49;9.10;;;2.95;;
6406;SDS011;3236;51.022;6.818;2024-01-16T08:55:16;3.60;;;1.60;;
6406;SDS011;3236;51.022;6.818;2024-01-16T08:57:44;4.80;;;2.83;;
6406;SDS011;3236;51.022;6.818;2024-01-16T09:00:13;10.57;;;2.53;;
6406;SDS011;3236;51.022;6.818;2024-01-16T09:02:40;6.68;;;2.50;;
6406;SDS011;3236;51.022;6.818;2024-01-16T09:05:14;8.63;;;2.45;;
6406;SDS011;3236;51.022;6.818;2024-01-16T09:07:42;7.68;;;3.38;;
6406;SDS011;3236;51.022;6.818;2024-01-16T09:10:09;9.23;;;2.78;;
6406;SDS011;3236;51.022;6.818;2024-01-16T09:12:37;5.80;;;2.65;;
6406;SDS011;3236;51.022;6.818;2024-01-16T09:15:05;5.88;;;2.75;;
6406;SDS011;3236;51.022;6.818;2024-01-16T09:17:37;8.32;;;2.50;;
6406;SDS011;3236;51.022;6.818;2024-01-16T09:20:05;11.48;;;3.40;;
6406;SDS011;3236;51.022;6.818;2024-01-16T09:22:38;4.32;;;2.20;;
6406;SDS011;3236;51.022;6.818;2024-01-16T09:25:06;7.38;;;2.70;;
6406;SDS011;3236;51.022;6.818;2024-01-16T09:27:33;7.18;;;2.45;;
6406;SDS011;3236;51.022;6.818;2024-01-16T09:30:03;7.15;;;2.67;;
6406;SDS011;3236;51.022;6.818;2024-01-16T09:32:32;9.77;;;3.05;;
6406;SDS011;3236;51.022;6.818;2024-01-16T09:35:05;3.55;;;2.20;;
6406;SDS011;3236;51.022;6.818;2024-01-16T09:37:37;1.83;;;1.20;;
6406;SDS011;3236;51.022;6.818;2024-01-16T09:40:05;7.43;;;2.60;;
6406;SDS011;3236;51.022;6.818;2024-01-16T09:42:34;6.55;;;3.95;;
6406;SDS011;3236;51.022;6.818;2024-01-16T09:45:01;14.98;;;5.38;;
6406;SDS011;3236;51.022;6.818;2024-01-16T09:47:30;19.92;;;5.70;;
6406;SDS011;3236;51.022;6.818;2024-01-16T09:49:57;16.83;;;5.90;;
6406;SDS011;3236;51.022;6.818;2024-01-16T09:52:29;10.23;;;3.78;;
6406;SDS011;3236;51.022;6.818;2024-01-16T09:54:56;32.03;;;9.70;;
6406;SDS011;3236;51.022;6.818;2024-01-16T09:57:24;10.35;;;3.97;;
6406;SDS011;3236;51.022;6.818;2024-01-16T09:59:52;15.73;;;4.60;;
6406;SDS011;3236;51.022;6.818;2024-01-16T10:02:19;27.30;;;7.93;;
6406;SDS011;3236;51.022;6.818;2024-01-16T10:04:51;14.77;;;5.53;;
6406;SDS011;3236;51.022;6.818;2024-01-16T10:07:18;23.30;;;6.68;;
6406;SDS011;3236;51.022;6.818;2024-01-16T10:09:54;30.58;;;11.05;;
6406;SDS011;3236;51.022;6.818;2024-01-16T10:12:23;7.20;;;3.03;;
6406;SDS011;3236;51.022;6.818;2024-01-16T10:14:51;10.80;;;3.15;;
6406;SDS011;3236;51.022;6.818;2024-01-16T10:17:18;8.40;;;3.63;;
6406;SDS011;3236;51.022;6.818;2024-01-16T10:19:47;4.93;;;2.72;;
6406;SDS011;3236;51.022;6.818;2024-01-16T10:22:19;7.30;;;3.08;;
6406;SDS011;3236;51.022;6.818;2024-01-16T10:24:48;10.93;;;3.97;;
6406;SDS011;3236;51.022;6.818;2024-01-16T10:27:16;5.78;;;2.65;;
6406;SDS011;3236;51.022;6.818;2024-01-16T10:32:34;11.07;;;3.40;;
6406;SDS011;3236;51.022;6.818;2024-01-16T10:35:06;8.05;;;3.00;;
6406;SDS011;3236;51.022;6.818;2024-01-16T10:37:45;10.23;;;3.95;;
6406;SDS011;3236;51.022;6.818;2024-01-16T10:40:17;12.68;;;3.67;;
6406;SDS011;3236;51.022;6.818;2024-01-16T10:42:46;9.45;;;3.33;;
6406;SDS011;3236;51.022;6.818;2024-01-16T10:45:26;7.00;;;2.88;;
6406;SDS011;3236;51.022;6.818;2024-01-16T10:48:00;4.67;;;2.73;;
6406;SDS011;3236;51.022;6.818;2024-01-16T10:50:29;13.25;;;2.97;;
6406;SDS011;3236;51.022;6.818;2024-01-16T10:52:59;4.65;;;2.78;;
6406;SDS011;3236;51.022;6.818;2024-01-16T10:55:27;8.25;;;2.80;;
6406;SDS011;3236;51.022;6.818;2024-01-16T10:58:02;17.10;;;3.53;;
6406;SDS011;3236;51.022;6.818;2024-01-16T11:00:31;7.07;;;3.53;;
6406;SDS011;3236;51.022;6.818;2024-01-16T11:03:04;11.15;;;3.95;;
6406;SDS011;3236;51.022;6.818;2024-01-16T11:05:34;10.68;;;4.35;;
6406;SDS011;3236;51.022;6.818;2024-01-16T11:08:03;12.50;;;3.28;;
6406;SDS011;3236;51.022;6.818;2024-01-16T11:10:32;3.78;;;2.13;;
6406;SDS011;3236;51.022;6.818;2024-01-16T11:13:04;3.42;;;2.33;;
6406;SDS011;3236;51.022;6.818;2024-01-16T11:15:33;2.25;;;1.77;;
6406;SDS011;3236;51.022;6.818;2024-01-16T11:18:08;12.60;;;5.88;;
6406;SDS011;3236;51.022;6.818;2024-01-16T11:20:37;10.00;;;4.25;;
6406;SDS011;3236;51.022;6.818;2024-01-16T11:23:08;2.05;;;1.85;;
6406;SDS011;3236;51.022;6.818;2024-01-16T11:25:36;9.77;;;3.25;;
6406;SDS011;3236;51.022;6.818;2024-01-16T11:28:09;5.95;;;2.80;;
6406;SDS011;3236;51.022;6.818;2024-01-16T11:30:38;5.85;;;2.88;;
6406;SDS011;3236;51.022;6.818;2024-01-16T11:33:06;10.10;;;3.15;;
6406;SDS011;3236;51.022;6.818;2024-01-16T11:39:16;14.25;;;3.50;;
6406;SDS011;3236;51.022;6.818;2024-01-16T11:41:48;10.25;;;3.10;;
6406;SDS011;3236;51.022;6.818;2024-01-16T11:47:15;7.30;;;3.08;;
6406;SDS011;3236;51.022;6.818;2024-01-16T11:49:45;12.60;;;2.80;;
6406;SDS011;3236;51.022;6.818;2024-01-16T11:52:18;13.80;;;2.47;;
6406;SDS011;3236;51.022;6.818;2024-01-16T11:55:28;10.18;;;4.00;;
6406;SDS011;3236;51.022;6.818;2024-01-16T12:01:03;4.95;;;2.50;;
6406;SDS011;3236;51.022;6.818;2024-01-16T12:03:32;8.98;;;2.90;;
6406;SDS011;3236;51.022;6.818;2024-01-16T12:06:00;11.60;;;3.67;;
6406;SDS011;3236;51.022;6.818;2024-01-16T12:08:31;9.35;;;3.60;;
6406;SDS011;3236;51.022;6.818;2024-01-16T12:11:00;9.83;;;3.27;;
6406;SDS011;3236;51.022;6.818;2024-01-16T12:13:28;12.38;;;2.97;;
6406;SDS011;3236;51.022;6.818;2024-01-16T12:15:59;16.52;;;3.20;;
6406;SDS011;3236;51.022;6.818;2024-01-16T12:18:26;6.60;;;2.75;;
6406;SDS011;3236;51.022;6.818;2024-01-16T12:20:54;5.05;;;2.03;;
6406;SDS011;3236;51.022;6.818;2024-01-16T12:23:21;15.43;;;2.30;;
6406;SDS011;3236;51.022;6.818;2024-01-16T12:25:52;14.38;;;3.55;;
6406;SDS011;3236;51.022;6.818;2024-01-16T12:28:22;7.45;;;2.97;;
6406;SDS011;3236;51.022;6.818;2024-01-16T12:30:50;4.63;;;2.75;;
6406;SDS011;3236;51.022;6.818;2024-01-16T12:33:21;11.70;;;3.25;;
6406;SDS011;3236;51.022;6.818;2024-01-16T12:35:48;8.95;;;2.40;;
6406;SDS011;3236;51.022;6.818;2024-01-16T12:38:16;5.38;;;2.53;;
6406;SDS011;3236;51.022;6.818;2024-01-16T12:40:44;8.90;;;3.20;;
6406;SDS011;3236;51.022;6.818;2024-01-16T12:43:19;8.73;;;3.45;;
6406;SDS011;3236;51.022;6.818;2024-01-16T12:45:48;17.35;;;3.65;;
6406;SDS011;3236;51.022;6.818;2024-01-16T12:48:22;9.13;;;3.08;;
6406;SDS011;3236;51.022;6.818;2024-01-16T12:50:50;8.95;;;3.67;;
6406;SDS011;3236;51.022;6.818;2024-01-16T12:53:21;5.47;;;2.47;;
6406;SDS011;3236;51.022;6.818;2024-01-16T12:55:50;4.60;;;3.00;;
6406;SDS011;3236;51.022;6.818;2024-01-16T12:58:24;11.23;;;3.33;;
6406;SDS011;3236;51.022;6.818;2024-01-16T13:00:53;7.75;;;2.75;;
6406;SDS011;3236;51.022;6.818;2024-01-16T13:03:23;8.70;;;2.08;;
6406;SDS011;3236;51.022;6.818;2024-01-16T13:05:54;6.80;;;2.28;;
6406;SDS011;3236;51.022;6.818;2024-01-16T13:08:22;5.75;;;2.72;;
6406;SDS011;3236;51.022;6.818;2024-01-16T13:13:33;12.40;;;3.85;;
6406;SDS011;3236;51.022;6.818;2024-01-16T13:16:03;7.57;;;2.65;;
6406;SDS011;3236;51.022;6.818;2024-01-16T13:18:33;9.43;;;3.25;;
6406;SDS011;3236;51.022;6.818;2024-01-16T13:21:01;4.35;;;1.98;;
6406;SDS011;3236;51.022;6.818;2024-01-16T13:23:29;9.43;;;3.00;;
6406;SDS011;3236;51.022;6.818;2024-01-16T13:25:57;9.57;;;2.67;;
6406;SDS011;3236;51.022;6.818;2024-01-16T13:28:25;4.95;;;1.80;;
6406;SDS011;3236;51.022;6.818;2024-01-16T13:30:52;7.00;;;2.72;;
6406;SDS011;3236;51.022;6.818;2024-01-16T13:33:22;6.22;;;2.85;;
6406;SDS011;3236;51.022;6.818;2024-01-16T13:36:01;8.20;;;2.85;;
6406;SDS011;3236;51.022;6.818;2024-01-16T13:38:30;10.85;;;2.95;;
6406;SDS011;3236;51.022;6.818;2024-01-16T13:40:57;8.68;;;3.50;;
6406;SDS011;3236;51.022;6.818;2024-01-16T13:43:24;10.93;;;2.75;;
6406;SDS011;3236;51.022;6.818;2024-01-16T13:45:52;9.65;;;3.53;;
6406;SDS011;3236;51.022;6.818;2024-01-16T13:48:21;5.45;;;2.67;;
6406;SDS011;3236;51.022;6.818;2024-01-16T13:50:49;4.95;;;2.15;;
6406;SDS011;3236;51.022;6.818;2024-01-16T13:53:16;7.80;;;2.78;;
6406;SDS011;3236;51.022;6.818;2024-01-16T13:55:43;7.03;;;2.83;;
6406;SDS011;3236;51.022;6.818;2024-01-16T13:58:11;7.97;;;2.88;;
6406;SDS011;3236;51.022;6.818;2024-01-16T14:00:38;7.38;;;2.92;;
6406;SDS011;3236;51.022;6.818;2024-01-16T14:03:06;11.82;;;3.35;;
6406;SDS011;3236;51.022;6.818;2024-01-16T14:05:35;5.65;;;3.53;;
6406;SDS011;3236;51.022;6.818;2024-01-16T14:08:05;5.32;;;2.35;;
6406;SDS011;3236;51.022;6.818;2024-01-16T14:10:33;8.60;;;2.65;;
6406;SDS011;3236;51.022;6.818;2024-01-16T14:13:00;8.18;;;2.88;;
6406;SDS011;3236;51.022;6.818;2024-01-16T14:15:29;8.20;;;3.25;;
6406;SDS011;3236;51.022;6.818;2024-01-16T14:17:57;4.05;;;2.35;;
6406;SDS011;3236;51.022;6.818;2024-01-16T14:20:25;7.22;;;2.42;;
6406;SDS011;3236;51.022;6.818;2024-01-16T14:22:54;7.07;;;2.47;;
6406;SDS011;3236;51.022;6.818;2024-01-16T14:25:21;38.47;;;18.17;;
6406;SDS011;3236;51.022;6.818;2024-01-16T14:27:57;7.10;;;3.20;;
6406;SDS011;3236;51.022;6.818;2024-01-16T14:30:26;12.32;;;5.53;;
6406;SDS011;3236;51.022;6.818;2024-01-16T14:32:53;11.07;;;3.60;;
6406;SDS011;3236;51.022;6.818;2024-01-16T14:35:21;3.95;;;2.40;;
6406;SDS011;3236;51.022;6.818;2024-01-16T14:37:49;7.57;;;3.05;;
6406;SDS011;3236;51.022;6.818;2024-01-16T14:40:27;7.00;;;3.35;;
6406;SDS011;3236;51.022;6.818;2024-01-16T14:42:55;8.63;;;3.38;;
6406;SDS011;3236;51.022;6.818;2024-01-16T14:45:23;8.07;;;2.53;;
6406;SDS011;3236;51.022;6.818;2024-01-16T14:47:52;6.90;;;3.75;;
6406;SDS011;3236;51.022;6.818;2024-01-16T14:50:20;7.30;;;3.67;;
6406;SDS011;3236;51.022;6.818;2024-01-16T14:52:49;5.35;;;3.15;;
6406;SDS011;3236;51.022;6.818;2024-01-16T14:55:17;11.93;;;3.90;;
6406;SDS011;3236;51.022;6.818;2024-01-16T14:57:47;9.57;;;3.33;;
6406;SDS011;3236;51.022;6.818;2024-01-16T15:00:18;8.20;;;4.25;;
6406;SDS011;3236;51.022;6.818;2024-01-16T15:02:49;14.90;;;4.10;;
6406;SDS011;3236;51.022;6.818;2024-01-16T15:05:16;9.30;;;3.72;;
6406;SDS011;3236;51.022;6.818;2024-01-16T15:07:45;9.20;;;3.95;;
6406;SDS011;3236;51.022;6.818;2024-01-16T15:10:13;7.85;;;3.20;;
6406;SDS011;3236;51.022;6.818;2024-01-16T15:12:42;8.85;;;4.38;;
6406;SDS011;3236;51.022;6.818;2024-01-16T15:15:11;7.82;;;3.78;;
6406;SDS011;3236;51.022;6.818;2024-01-16T15:17:40;6.53;;;3.90;;
6406;SDS011;3236;51.022;6.818;2024-01-16T15:20:08;7.18;;;3.42;;
6406;SDS011;3236;51.022;6.818;2024-01-16T15:22:36;13.82;;;3.80;;
6406;SDS011;3236;51.022;6.818;2024-01-16T15:25:05;10.88;;;4.28;;
6406;SDS011;3236;51.022;6.818;2024-01-16T15:27:32;8.10;;;3.83;;
6406;SDS011;3236;51.022;6.818;2024-01-16T15:30:01;8.60;;;5.10;;
6406;SDS011;3236;51.022;6.818;2024-01-16T15:32:30;10.60;;;4.13;;